Time;durP1;ratioP1;P1;durP2;ratioP2;P2;SDS_P1;SDS_P2;PMS_P1;PMS_P2;Temp;Humidity;BMP_temperature;BMP_pressure;BME280_temperature;BME280_humidity;BME280_pressure;Samples;Min_cycle;Max_cycle;Signal;HPM_P1;HPM_P2
2023/01/08 00:01:12;;;;;;;5.63;4.00;;;;;;;6.99;100.00;100236.41;4944704;28;20751;-81
2023/01/08 00:03:39;;;;;;;5.93;4.40;;;;;;;6.99;100.00;100231.16;4957237;28;20178;-80
2023/01/08 00:06:11;;;;;;;4.97;3.90;;;;;;;7.04;100.00;100224.91;4957967;28;20498;-81
2023/01/08 00:08:38;;;;;;;6.73;4.40;;;;;;;7.01;100.00;100224.97;4943263;28;20050;-80
2023/01/08 00:11:05;;;;;;;7.43;4.47;;;;;;;6.93;100.00;100211.06;4948021;29;20040;-81
2023/01/08 00:13:31;;;;;;;6.47;5.10;;;;;;;7.11;100.00;100215.22;4959500;28;20047;-80
2023/01/08 00:16:05;;;;;;;6.47;4.67;;;;;;;7.05;100.00;100212.66;4963398;28;20062;-79
2023/01/08 00:18:34;;;;;;;8.07;5.13;;;;;;;7.08;100.00;100199.50;4943908;28;20059;-80
2023/01/08 00:21:02;;;;;;;9.50;4.97;;;;;;;7.12;100.00;100198.56;4947190;29;20043;-81
2023/01/08 00:23:29;;;;;;;8.30;5.10;;;;;;;7.11;100.00;100207.31;4969023;28;20094;-81
2023/01/08 00:25:55;;;;;;;8.13;5.30;;;;;;;7.11;100.00;100195.97;4964627;28;20040;-79
2023/01/08 00:28:22;;;;;;;8.80;5.73;;;;;;;7.04;100.00;100197.78;4940945;28;20107;-80
2023/01/08 00:30:48;;;;;;;5.27;4.27;;;;;;;7.02;100.00;100196.94;4942992;28;20094;-80
2023/01/08 00:33:15;;;;;;;6.70;5.13;;;;;;;7.09;100.00;100190.72;4943079;29;20062;-80
2023/01/08 00:35:42;;;;;;;6.77;4.70;;;;;;;7.00;100.00;100196.97;4968619;28;20034;-80
2023/01/08 00:38:18;;;;;;;10.50;5.17;;;;;;;7.00;100.00;100185.59;4940845;28;20046;-81
2023/01/08 00:40:47;;;;;;;6.53;4.03;;;;;;;7.07;100.00;100175.88;4961688;28;20047;-81
2023/01/08 00:43:16;;;;;;;5.37;3.97;;;;;;;7.00;100.00;100177.72;4959445;28;20568;-80
2023/01/08 00:45:44;;;;;;;7.33;4.17;;;;;;;7.04;100.00;100176.78;4959343;28;20130;-80
2023/01/08 00:48:16;;;;;;;6.43;4.10;;;;;;;7.00;100.00;100182.97;4973122;28;20142;-80
2023/01/08 00:50:48;;;;;;;5.93;4.70;;;;;;;6.89;100.00;100169.97;4943147;28;20043;-80
2023/01/08 00:53:29;;;;;;;6.55;4.45;;;;;;;6.95;100.00;100167.28;4926475;28;20055;-81
2023/01/08 00:56:01;;;;;;;5.97;4.00;;;;;;;6.85;100.00;100159.53;4957258;28;20098;-80
2023/01/08 00:58:29;;;;;;;7.17;4.40;;;;;;;6.76;100.00;100155.28;4924889;28;20059;-80
2023/01/08 01:00:58;;;;;;;5.63;4.13;;;;;;;6.70;100.00;100156.22;4950647;28;20069;-82
2023/01/08 01:03:28;;;;;;;5.67;4.37;;;;;;;6.50;100.00;100142.50;4958679;28;20058;-81
2023/01/08 01:06:03;;;;;;;5.90;4.37;;;;;;;6.51;100.00;100146.84;4956838;28;20578;-80
2023/01/08 01:08:31;;;;;;;7.57;4.60;;;;;;;6.54;100.00;100145.94;4910052;29;20098;-80
2023/01/08 01:11:00;;;;;;;7.07;4.20;;;;;;;6.44;100.00;100153.06;4952972;29;20055;-81
2023/01/08 01:13:32;;;;;;;7.10;4.67;;;;;;;6.36;100.00;100149.66;4967299;28;20291;-80
2023/01/08 01:16:01;;;;;;;4.60;4.10;;;;;;;6.34;100.00;100154.06;4952572;28;20066;-80
2023/01/08 01:18:34;;;;;;;6.23;3.80;;;;;;;6.27;100.00;100142.75;4945937;28;20090;-80
2023/01/08 01:21:02;;;;;;;6.50;3.97;;;;;;;6.26;100.00;100140.16;4929463;28;20058;-80
2023/01/08 01:23:32;;;;;;;5.30;4.07;;;;;;;6.07;100.00;100131.63;4927167;28;20163;-80
2023/01/08 01:26:15;;;;;;;5.60;4.20;;;;;;;6.17;100.00;100139.38;4936129;28;20047;-81
2023/01/08 01:28:45;;;;;;;6.67;5.10;;;;;;;6.01;100.00;100140.41;4938558;28;20058;-81
2023/01/08 01:31:19;;;;;;;7.20;4.70;;;;;;;6.02;100.00;100144.75;4937109;28;20047;-80
2023/01/08 01:33:52;;;;;;;7.17;4.93;;;;;;;6.08;100.00;100138.59;4931434;29;20246;-80
2023/01/08 01:36:22;;;;;;;6.10;4.43;;;;;;;6.04;100.00;100150.00;4935269;28;20055;-81
2023/01/08 01:38:58;;;;;;;6.43;4.43;;;;;;;6.06;100.00;100148.25;4955467;28;20043;-81
2023/01/08 01:41:28;;;;;;;6.75;5.03;;;;;;;5.97;100.00;100138.72;4937665;28;20301;-80
2023/01/08 01:44:41;;;;;;;7.73;6.13;;;;;;;6.02;100.00;100139.53;4956521;28;20051;-80
2023/01/08 01:47:29;;;;;;;6.17;4.63;;;;;;;5.88;100.00;100115.16;4937731;29;20050;-80
2023/01/08 01:50:23;;;;;;;4.80;3.80;;;;;;;5.92;100.00;100109.03;4933194;28;20043;-80
2023/01/08 01:53:08;;;;;;;7.40;4.30;;;;;;;5.95;100.00;100116.00;4941507;28;20043;-81
2023/01/08 01:55:40;;;;;;;6.77;4.17;;;;;;;5.87;100.00;100110.78;4951720;28;20055;-81
2023/01/08 01:58:30;;;;;;;7.77;4.23;;;;;;;5.91;100.00;100110.78;4916129;29;20047;-81
2023/01/08 02:01:05;;;;;;;5.53;4.20;;;;;;;5.93;100.00;100105.53;4927023;29;20098;-80
2023/01/08 02:03:37;;;;;;;6.63;4.30;;;;;;;5.85;100.00;100107.34;4924832;28;20043;-81
2023/01/08 02:06:30;;;;;;;5.77;4.23;;;;;;;5.78;100.00;100110.88;4931281;29;20047;-79
2023/01/08 02:09:38;;;;;;;7.60;4.40;;;;;;;5.79;100.00;100112.63;4941900;28;20047;-81
2023/01/08 02:12:15;;;;;;;7.17;4.67;;;;;;;5.64;100.00;100111.03;4972043;28;20361;-81
2023/01/08 02:14:52;;;;;;;6.27;4.63;;;;;;;5.67;100.00;100120.63;4923236;29;20127;-81
2023/01/08 02:17:33;;;;;;;6.60;4.33;;;;;;;5.64;100.00;100116.28;4950718;28;20043;-80
2023/01/08 02:20:14;;;;;;;4.53;3.67;;;;;;;5.56;100.00;100107.63;4964753;28;20043;-81
2023/01/08 02:22:55;;;;;;;5.82;4.28;;;;;;;5.55;100.00;100117.25;4932414;28;20047;-81
2023/01/08 02:25:59;;;;;;;6.53;4.43;;;;;;;5.37;100.00;100107.75;4930219;28;20053;-81
2023/01/08 02:28:35;;;;;;;7.10;4.53;;;;;;;5.34;100.00;100102.56;4922652;28;20102;-80
2023/01/08 02:31:05;;;;;;;6.03;4.77;;;;;;;5.19;100.00;100096.56;4929917;28;20117;-81
2023/01/08 02:33:39;;;;;;;5.13;4.23;;;;;;;5.18;100.00;100090.47;4947319;28;20049;-80
2023/01/08 02:36:31;;;;;;;5.73;3.90;;;;;;;5.13;100.00;100087.03;4929011;29;20290;-81
2023/01/08 02:39:25;;;;;;;5.87;4.17;;;;;;;5.05;100.00;100075.75;4954469;28;20043;-81
2023/01/08 02:42:29;;;;;;;6.00;4.53;;;;;;;5.01;100.00;100059.16;4956274;28;20043;-80
2023/01/08 02:45:01;;;;;;;6.60;4.53;;;;;;;5.15;100.00;100043.38;4942982;28;20208;-81
2023/01/08 02:47:40;;;;;;;5.27;4.17;;;;;;;5.04;100.00;100051.31;4957667;28;20039;-80
2023/01/08 02:50:25;;;;;;;4.83;4.03;;;;;;;4.90;100.00;100042.69;4935221;29;20186;-80
2023/01/08 02:53:11;;;;;;;5.83;4.30;;;;;;;4.83;100.00;100040.13;4948469;28;20039;-79
2023/01/08 02:55:40;;;;;;;5.90;4.60;;;;;;;4.77;100.00;100048.88;4929849;28;20043;-80
2023/01/08 02:58:07;;;;;;;6.93;4.90;;;;;;;4.66;100.00;100054.19;4957418;28;20040;-79
2023/01/08 03:00:35;;;;;;;7.67;4.73;;;;;;;4.65;100.00;100051.56;4953920;28;20043;-80
2023/01/08 03:03:09;;;;;;;8.47;4.90;;;;;;;4.61;100.00;100048.09;4959002;28;20097;-80
2023/01/08 03:05:37;;;;;;;7.03;5.03;;;;;;;4.59;100.00;100065.56;4934605;28;20053;-80
2023/01/08 03:08:04;;;;;;;7.20;5.00;;;;;;;4.50;100.00;100061.25;4955178;28;20047;-80
2023/01/08 03:10:32;;;;;;;6.63;4.80;;;;;;;4.42;100.00;100059.56;4955915;28;20062;-79
2023/01/08 03:13:01;;;;;;;6.80;4.60;;;;;;;4.32;100.00;100071.81;4931867;28;20047;-80
2023/01/08 03:15:36;;;;;;;6.73;4.90;;;;;;;4.41;100.00;100053.44;4938583;28;20091;-80
2023/01/08 03:18:07;;;;;;;7.30;5.10;;;;;;;4.27;100.00;100044.78;4950855;28;20049;-81
2023/01/08 03:20:35;;;;;;;8.80;4.70;;;;;;;4.36;100.00;100041.25;4937158;28;20052;-80
2023/01/08 03:23:06;;;;;;;6.53;4.63;;;;;;;4.31;100.00;100038.69;4956571;28;20040;-80
2023/01/08 03:25:34;;;;;;;5.80;4.37;;;;;;;4.23;100.00;100024.78;4952410;28;20513;-80
2023/01/08 03:28:04;;;;;;;6.27;4.43;;;;;;;4.15;100.00;100039.63;4960096;28;20114;-80
2023/01/08 03:30:31;;;;;;;6.70;5.17;;;;;;;4.15;100.00;100022.22;4936896;28;20502;-80
2023/01/08 03:32:59;;;;;;;8.03;4.83;;;;;;;4.17;100.00;100015.22;4935221;29;20074;-80
2023/01/08 03:35:26;;;;;;;7.37;5.27;;;;;;;4.20;100.00;100006.47;4915882;28;20036;-80
2023/01/08 03:37:58;;;;;;;7.30;5.00;;;;;;;4.27;100.00;100002.09;4962831;28;20039;-79
2023/01/08 03:40:29;;;;;;;5.97;4.63;;;;;;;4.12;100.00;100009.16;4935586;28;20090;-81
2023/01/08 03:42:56;;;;;;;7.00;4.93;;;;;;;4.03;100.00;100017.00;4931298;29;20043;-80
2023/01/08 03:45:24;;;;;;;8.37;4.83;;;;;;;3.97;100.00;100018.81;4939521;28;21044;-80
2023/01/08 03:47:52;;;;;;;6.50;4.57;;;;;;;4.03;100.00;100024.84;4927488;29;20039;-81
2023/01/08 03:50:22;;;;;;;7.83;5.47;;;;;;;3.91;100.00;100017.06;4946811;28;20062;-80
2023/01/08 03:52:48;;;;;;;6.53;4.97;;;;;;;3.94;100.00;100017.91;4932432;28;20553;-80
2023/01/08 03:55:15;;;;;;;6.97;4.80;;;;;;;3.92;100.00;100019.69;4934114;29;20039;-81
2023/01/08 03:57:42;;;;;;;8.57;5.67;;;;;;;3.84;100.00;100017.97;4935945;28;20046;-81
2023/01/08 04:00:09;;;;;;;8.93;5.60;;;;;;;3.88;100.00;100017.09;4944061;28;20043;-80
2023/01/08 04:02:36;;;;;;;6.87;5.37;;;;;;;3.88;100.00;100015.34;4945957;28;20051;-79
2023/01/08 04:05:03;;;;;;;7.53;5.43;;;;;;;3.81;100.00;100018.00;4942512;29;20106;-80
2023/01/08 04:07:30;;;;;;;8.37;5.83;;;;;;;3.86;100.00;100022.31;4945913;28;20132;-80
2023/01/08 04:09:56;;;;;;;7.83;5.10;;;;;;;3.75;100.00;100026.72;4960423;28;20114;-80
2023/01/08 04:12:23;;;;;;;7.07;5.23;;;;;;;3.70;100.00;100028.47;4941013;29;20035;-80
2023/01/08 04:14:50;;;;;;;8.97;5.63;;;;;;;3.70;100.00;100023.25;4934859;28;20042;-80
2023/01/08 04:17:16;;;;;;;8.73;5.77;;;;;;;3.65;100.00;100022.38;4956021;28;20046;-80
2023/01/08 04:19:43;;;;;;;7.43;5.60;;;;;;;3.62;100.00;100023.28;4956190;28;20094;-79
2023/01/08 04:22:10;;;;;;;8.60;5.47;;;;;;;3.71;100.00;100027.59;4949071;28;20050;-79
2023/01/08 04:24:37;;;;;;;7.73;5.43;;;;;;;3.60;100.00;100038.06;4945892;28;20065;-79
2023/01/08 04:27:03;;;;;;;7.43;5.67;;;;;;;3.65;100.00;100023.25;4943478;29;20232;-80
2023/01/08 04:29:30;;;;;;;8.90;6.73;;;;;;;3.68;100.00;100022.38;4930726;28;20054;-80
2023/01/08 04:31:57;;;;;;;8.03;5.87;;;;;;;3.75;100.00;100018.00;4966502;28;20043;-80
2023/01/08 04:34:23;;;;;;;9.73;5.90;;;;;;;3.67;100.00;100018.03;4956609;28;20077;-79
2023/01/08 04:36:50;;;;;;;8.93;5.87;;;;;;;3.57;100.00;100030.25;4943873;28;20038;-79
2023/01/08 04:39:17;;;;;;;7.90;5.47;;;;;;;3.46;100.00;100025.94;4946450;29;20051;-79
2023/01/08 04:41:43;;;;;;;9.70;6.03;;;;;;;3.48;100.00;100038.09;4958214;28;20042;-79
2023/01/08 04:44:10;;;;;;;8.43;5.67;;;;;;;3.42;100.00;100030.25;4940413;29;20110;-80
2023/01/08 04:46:39;;;;;;;9.60;6.00;;;;;;;3.42;100.00;100029.41;4923298;29;20058;-80
2023/01/08 04:49:06;;;;;;;7.77;6.00;;;;;;;3.42;100.00;100029.41;4925859;29;20445;-81
2023/01/08 04:51:33;;;;;;;7.83;5.90;;;;;;;3.31;100.00;100032.03;4949108;29;20396;-80
2023/01/08 04:53:59;;;;;;;8.73;6.07;;;;;;;3.33;100.00;100036.38;4954511;28;20102;-80
2023/01/08 04:56:26;;;;;;;8.77;5.53;;;;;;;3.44;100.00;100023.28;4942823;29;20612;-79
2023/01/08 04:58:53;;;;;;;6.73;5.00;;;;;;;3.37;100.00;100014.63;4945720;28;20049;-80
2023/01/08 05:01:24;;;;;;;11.33;6.20;;;;;;;3.30;100.00;100007.66;4955861;28;20047;-79
2023/01/08 05:03:53;;;;;;;6.40;4.73;;;;;;;3.18;100.00;99996.34;4973159;23;20067;-80
2023/01/08 05:06:20;;;;;;;6.30;4.33;;;;;;;3.17;100.00;99985.06;4969719;28;20047;-80
2023/01/08 05:08:47;;;;;;;6.47;4.40;;;;;;;3.15;100.00;99986.81;4958107;28;20094;-82
2023/01/08 05:11:13;;;;;;;5.73;4.50;;;;;;;3.14;100.00;99984.19;4949630;28;20498;-81
2023/01/08 05:13:40;;;;;;;6.63;4.60;;;;;;;3.23;100.00;99971.13;4936972;28;20031;-81
2023/01/08 05:16:06;;;;;;;7.63;4.90;;;;;;;3.20;100.00;99977.22;4955787;28;20055;-81
2023/01/08 05:18:33;;;;;;;6.43;4.77;;;;;;;3.27;100.00;99968.50;4938958;28;20047;-83
2023/01/08 05:21:01;;;;;;;7.70;4.90;;;;;;;3.24;100.00;99973.72;4957672;28;20046;-81
2023/01/08 05:23:29;;;;;;;7.30;4.93;;;;;;;3.18;100.00;99978.94;4960523;28;20041;-81
2023/01/08 05:25:57;;;;;;;6.53;4.70;;;;;;;3.14;100.00;99985.06;4923492;29;20066;-82
2023/01/08 05:28:25;;;;;;;8.07;5.73;;;;;;;3.15;100.00;99991.16;4923560;28;20039;-81
2023/01/08 05:30:52;;;;;;;8.57;6.00;;;;;;;3.13;100.00;99985.06;4930826;28;20411;-83
2023/01/08 05:33:19;;;;;;;7.60;5.50;;;;;;;3.15;100.00;99980.72;4966635;28;20046;-82
2023/01/08 05:35:46;;;;;;;7.97;5.87;;;;;;;3.18;100.00;99973.72;4953915;28;20089;-82
2023/01/08 05:38:12;;;;;;;9.97;6.37;;;;;;;3.21;100.00;99968.53;4941735;29;20079;-81
2023/01/08 05:40:39;;;;;;;9.57;5.77;;;;;;;3.24;100.00;99951.97;4924268;28;20049;-81
2023/01/08 05:43:06;;;;;;;8.77;6.03;;;;;;;3.29;100.00;99961.56;4941662;28;20054;-82
2023/01/08 05:45:32;;;;;;;7.53;5.37;;;;;;;3.22;100.00;99969.41;4931325;28;20070;-84
2023/01/08 05:47:59;;;;;;;7.50;5.27;;;;;;;3.30;100.00;99967.63;4954371;28;20046;-81
2023/01/08 05:50:26;;;;;;;6.97;5.40;;;;;;;3.26;100.00;99958.94;4939559;28;20518;-83
2023/01/08 05:52:54;;;;;;;8.70;6.00;;;;;;;3.32;100.00;99956.31;4957698;28;20526;-82
2023/01/08 05:55:21;;;;;;;8.80;5.80;;;;;;;3.29;100.00;99940.66;4950254;28;20039;-81
2023/01/08 05:57:48;;;;;;;8.07;5.67;;;;;;;3.27;100.00;99945.00;4940261;29;20079;-81
2023/01/08 06:00:15;;;;;;;8.17;5.67;;;;;;;3.50;100.00;99938.84;4961531;28;20094;-80
2023/01/08 06:02:46;;;;;;;9.50;6.37;;;;;;;3.41;100.00;99937.13;4938502;28;20089;-81
2023/01/08 06:05:14;;;;;;;9.47;6.20;;;;;;;3.41;100.00;99928.44;4953002;28;20038;-82
2023/01/08 06:07:40;;;;;;;9.30;6.17;;;;;;;3.42;100.00;99936.25;4926375;28;20050;-80
2023/01/08 06:10:07;;;;;;;8.07;5.77;;;;;;;3.36;100.00;99931.06;4956854;28;20050;-81
2023/01/08 06:12:34;;;;;;;7.70;5.90;;;;;;;3.35;100.00;99934.53;4929136;29;20044;-81
2023/01/08 06:15:01;;;;;;;8.80;5.97;;;;;;;3.36;100.00;99933.66;4922092;29;20175;-80
2023/01/08 06:17:27;;;;;;;9.27;7.00;;;;;;;3.44;100.00;99929.28;4964764;28;20044;-80
2023/01/08 06:19:54;;;;;;;10.57;7.17;;;;;;;3.39;100.00;99920.63;4927467;29;20076;-80
2023/01/08 06:22:20;;;;;;;10.50;6.50;;;;;;;3.37;100.00;99924.97;4955454;28;20106;-81
2023/01/08 06:24:47;;;;;;;11.07;6.70;;;;;;;3.37;100.00;99927.59;4940362;29;20043;-80
2023/01/08 06:27:14;;;;;;;10.37;6.83;;;;;;;3.41;100.00;99933.66;4951375;28;20063;-81
2023/01/08 06:29:40;;;;;;;9.67;6.90;;;;;;;3.37;100.00;99932.81;4929266;28;20097;-80
2023/01/08 06:32:07;;;;;;;11.70;7.17;;;;;;;3.41;100.00;99939.75;4969535;28;20051;-81
2023/01/08 06:34:33;;;;;;;10.27;7.33;;;;;;;3.39;100.00;99947.59;4939545;28;20043;-80
2023/01/08 06:37:00;;;;;;;11.93;7.63;;;;;;;3.40;100.00;99948.47;4927973;29;20048;-81
2023/01/08 06:39:27;;;;;;;13.13;7.87;;;;;;;3.37;100.00;99944.13;4936664;28;20499;-80
2023/01/08 06:41:53;;;;;;;14.90;9.50;;;;;;;3.42;100.00;99944.09;4951766;28;20039;-80
2023/01/08 06:44:20;;;;;;;14.80;9.00;;;;;;;3.43;100.00;99930.16;4938954;28;20402;-80
2023/01/08 06:46:47;;;;;;;15.97;9.67;;;;;;;3.45;100.00;99931.06;4960319;28;20042;-80
2023/01/08 06:49:13;;;;;;;13.23;8.60;;;;;;;3.39;100.00;99923.22;4958050;28;20178;-80
2023/01/08 06:51:40;;;;;;;14.33;9.10;;;;;;;3.50;100.00;99912.75;4957620;28;20067;-80
2023/01/08 06:54:07;;;;;;;12.83;7.97;;;;;;;3.49;100.00;99909.25;4946291;28;20076;-81
2023/01/08 06:56:33;;;;;;;12.10;7.30;;;;;;;3.49;100.00;99914.47;4947588;29;20032;-81
2023/01/08 06:59:18;;;;;;;14.45;8.63;;;;;;;3.50;100.00;99915.34;4932786;28;20665;-84
2023/01/08 07:01:44;;;;;;;13.10;8.67;;;;;;;3.47;100.00;99923.22;4943359;28;20035;-81
2023/01/08 07:04:11;;;;;;;15.10;9.50;;;;;;;3.53;100.00;99926.66;4944770;29;20035;-84
2023/01/08 07:06:38;;;;;;;17.63;10.40;;;;;;;3.56;100.00;99918.81;4931610;28;20058;-84
2023/01/08 07:09:04;;;;;;;18.33;9.77;;;;;;;3.59;100.00;99929.25;4929676;28;20066;-85
2023/01/08 07:11:32;;;;;;;25.23;12.80;;;;;;;3.60;100.00;99920.53;4978204;28;20519;-85
2023/01/08 07:13:59;;;;;;;22.60;13.10;;;;;;;3.67;100.00;99914.41;4921200;29;20047;-85
2023/01/08 07:16:25;;;;;;;25.27;12.77;;;;;;;3.71;100.00;99920.50;4963001;28;20051;-85
2023/01/08 07:18:52;;;;;;;27.43;14.43;;;;;;;3.76;100.00;99918.72;4937880;29;20638;-84
2023/01/08 07:21:21;;;;;;;28.30;17.30;;;;;;;3.81;100.00;99916.97;4919739;29;20082;-84
2023/01/08 07:23:48;;;;;;;32.50;18.30;;;;;;;3.85;100.00;99915.19;4919260;29;20044;-84
2023/01/08 07:26:15;;;;;;;35.03;18.70;;;;;;;3.95;100.00;99912.53;4926634;29;20050;-87
2023/01/08 07:28:42;;;;;;;30.30;15.97;;;;;;;4.01;100.00;99915.97;4942859;29;20047;-84
2023/01/08 07:31:09;;;;;;;25.90;15.63;;;;;;;3.93;100.00;99914.28;4934911;28;20114;-86
2023/01/08 07:33:36;;;;;;;19.57;11.80;;;;;;;3.94;100.00;99913.38;4933986;28;20035;-80
2023/01/08 07:36:04;;;;;;;19.60;11.40;;;;;;;3.98;100.00;99905.56;4916881;29;20040;-80
2023/01/08 07:38:31;;;;;;;17.50;10.70;;;;;;;4.08;100.00;99912.44;4924859;28;20129;-81
2023/01/08 07:40:57;;;;;;;20.23;12.13;;;;;;;4.13;100.00;99900.22;4920866;29;20044;-80
2023/01/08 07:43:25;;;;;;;20.47;12.30;;;;;;;4.11;100.00;99904.59;4942204;28;20538;-80
2023/01/08 07:45:54;;;;;;;19.47;11.93;;;;;;;4.17;100.00;99899.31;4929817;28;20165;-80
2023/01/08 07:48:21;;;;;;;21.13;11.70;;;;;;;4.15;100.00;99908.94;4923670;28;20110;-80
2023/01/08 07:50:48;;;;;;;18.33;10.90;;;;;;;4.27;100.00;99902.72;4929425;29;20040;-80
2023/01/08 07:53:16;;;;;;;17.73;12.00;;;;;;;4.27;100.00;99894.88;4925039;29;20490;-81
2023/01/08 07:55:43;;;;;;;20.00;12.07;;;;;;;4.27;100.00;99894.88;4935906;28;20046;-80
2023/01/08 07:58:12;;;;;;;20.67;13.07;;;;;;;4.30;100.00;99895.75;4941179;29;20070;-80
2023/01/08 08:00:39;;;;;;;17.57;11.50;;;;;;;4.36;100.00;99892.19;4926209;28;20094;-80
2023/01/08 08:03:08;;;;;;;16.57;10.40;;;;;;;4.37;100.00;99894.84;4953972;28;20249;-81
2023/01/08 08:05:34;;;;;;;13.50;9.17;;;;;;;4.40;100.00;99891.31;4936392;28;20438;-80
2023/01/08 08:08:07;;;;;;;11.97;8.53;;;;;;;4.44;100.00;99901.72;4936990;28;20055;-80
2023/01/08 08:10:36;;;;;;;11.17;8.57;;;;;;;4.47;100.00;99895.63;4941066;28;20075;-80
2023/01/08 08:13:03;;;;;;;9.93;6.87;;;;;;;4.48;100.00;99900.84;4924454;29;20043;-80
2023/01/08 08:15:30;;;;;;;11.47;7.80;;;;;;;4.55;100.00;99892.94;4916201;29;20043;-80
2023/01/08 08:17:56;;;;;;;10.77;8.47;;;;;;;4.60;100.00;99901.59;4919224;29;20058;-80
2023/01/08 08:20:23;;;;;;;12.40;8.13;;;;;;;4.63;100.00;99899.84;4949878;28;20098;-80
2023/01/08 08:22:50;;;;;;;10.40;7.93;;;;;;;4.68;100.00;99899.78;4968882;28;20042;-79
2023/01/08 08:25:17;;;;;;;11.97;8.60;;;;;;;4.73;100.00;99905.88;4946613;29;20521;-80
2023/01/08 08:27:44;;;;;;;11.93;8.60;;;;;;;4.76;100.00;99908.44;4942370;29;20047;-80
2023/01/08 08:30:12;;;;;;;10.83;7.23;;;;;;;4.82;100.00;99910.16;4917696;29;20078;-80
2023/01/08 08:32:41;;;;;;;11.50;7.83;;;;;;;4.80;100.00;99907.56;4918009;29;20051;-79
2023/01/08 08:35:08;;;;;;;11.07;8.47;;;;;;;4.90;100.00;99905.72;4934321;29;20040;-79
2023/01/08 08:37:35;;;;;;;11.23;8.20;;;;;;;4.91;100.00;99900.47;4946288;28;20042;-80
2023/01/08 08:40:02;;;;;;;11.73;8.63;;;;;;;4.90;100.00;99898.72;4928584;29;20055;-80
2023/01/08 08:42:29;;;;;;;11.90;8.37;;;;;;;4.91;100.00;99902.22;4926726;29;20134;-79
2023/01/08 08:44:55;;;;;;;12.83;8.60;;;;;;;5.00;100.00;99894.25;4937975;28;20042;-79
2023/01/08 08:47:22;;;;;;;11.30;7.87;;;;;;;5.03;100.00;99895.09;4942363;28;20050;-78
2023/01/08 08:49:48;;;;;;;10.50;8.27;;;;;;;5.06;100.00;99886.34;4928504;29;20062;-80
2023/01/08 08:52:15;;;;;;;10.90;8.00;;;;;;;5.05;100.00;99882.88;4941179;28;20454;-81
2023/01/08 08:54:42;;;;;;;10.20;7.67;;;;;;;5.11;100.00;99881.91;4939225;28;20043;-81
2023/01/08 08:57:09;;;;;;;11.23;7.87;;;;;;;5.13;100.00;99884.50;4945562;28;20097;-81
2023/01/08 08:59:36;;;;;;;10.83;7.27;;;;;;;5.12;100.00;99882.78;4929136;28;20074;-81
2023/01/08 09:02:02;;;;;;;11.47;7.40;;;;;;;5.15;100.00;99882.78;4920264;29;20043;-81
2023/01/08 09:04:30;;;;;;;11.63;8.23;;;;;;;5.17;100.00;99886.22;4926025;28;20094;-82
2023/01/08 09:06:58;;;;;;;11.63;8.47;;;;;;;5.22;100.00;99882.69;4954460;28;20411;-81
2023/01/08 09:09:25;;;;;;;11.30;7.83;;;;;;;5.25;100.00;99876.53;4916887;28;20051;-83
2023/01/08 09:11:52;;;;;;;11.00;8.70;;;;;;;5.27;100.00;99874.75;4962717;28;20049;-80
2023/01/08 09:14:19;;;;;;;10.73;8.00;;;;;;;5.30;100.00;99880.00;4970392;28;20506;-81
2023/01/08 09:16:46;;;;;;;11.57;7.97;;;;;;;5.40;100.00;99870.25;4915407;29;20054;-80
2023/01/08 09:19:13;;;;;;;13.27;8.20;;;;;;;5.37;100.00;99872.00;4928342;29;20051;-81
2023/01/08 09:21:39;;;;;;;12.67;8.93;;;;;;;5.43;100.00;99871.09;4945477;28;20046;-80
2023/01/08 09:24:06;;;;;;;12.73;8.20;;;;;;;5.44;100.00;99869.31;4925133;29;20040;-81
2023/01/08 09:26:33;;;;;;;13.67;9.00;;;;;;;5.44;100.00;99858.84;4932900;29;20047;-81
2023/01/08 09:29:00;;;;;;;13.37;8.70;;;;;;;5.48;100.00;99865.81;4920754;29;20062;-80
2023/01/08 09:31:27;;;;;;;10.80;8.00;;;;;;;5.55;100.00;99865.72;4936910;28;20040;-81
2023/01/08 09:33:53;;;;;;;9.90;7.73;;;;;;;5.56;100.00;99867.44;4925872;29;20086;-81
2023/01/08 09:36:20;;;;;;;12.87;8.67;;;;;;;5.63;100.00;99869.09;4916169;28;20071;-81
2023/01/08 09:38:46;;;;;;;13.80;9.43;;;;;;;5.61;100.00;99873.47;4955008;29;20043;-81
2023/01/08 09:41:27;;;;;;;11.57;8.30;;;;;;;5.63;100.00;99866.47;4938977;28;20070;-81
2023/01/08 09:43:55;;;;;;;23.53;15.57;;;;;;;5.64;100.00;99870.81;4953028;28;20089;-80
2023/01/08 09:46:25;;;;;;;25.47;15.03;;;;;;;5.65;100.00;99874.31;4943465;28;20082;-80
2023/01/08 09:48:52;;;;;;;16.80;10.87;;;;;;;5.78;100.00;99882.84;4925145;29;20047;-82
2023/01/08 09:51:19;;;;;;;15.87;11.40;;;;;;;5.77;100.00;99876.75;4934685;28;20043;-81
2023/01/08 09:53:54;;;;;;;19.60;14.10;;;;;;;5.78;100.00;99877.63;4945191;28;20437;-82
2023/01/08 09:56:21;;;;;;;16.20;12.00;;;;;;;5.80;100.00;99881.97;4948812;28;20109;-81
2023/01/08 09:58:49;;;;;;;15.73;11.30;;;;;;;5.85;100.00;99853.06;4926624;28;20046;-81
2023/01/08 10:01:28;;;;;;;13.77;10.27;;;;;;;5.73;100.00;99848.00;4934907;28;20047;-81
2023/01/08 10:04:17;;;;;;;15.70;10.70;;;;;;;5.73;100.00;99838.38;4952694;29;20499;-82
2023/01/08 10:06:47;;;;;;;13.90;10.03;;;;;;;5.79;100.00;99837.41;4940612;29;20128;-82
2023/01/08 10:09:14;;;;;;;13.60;9.10;;;;;;;5.74;100.00;99839.25;4948951;29;20043;-82
2023/01/08 10:11:43;;;;;;;12.50;9.27;;;;;;;5.74;100.00;99841.88;4926962;28;20050;-82
2023/01/08 10:14:24;;;;;;;12.37;8.67;;;;;;;5.78;100.00;99851.41;4948611;28;20035;-81
2023/01/08 10:17:01;;;;;;;17.20;10.47;;;;;;;5.76;100.00;99853.19;4939557;29;20067;-82
2023/01/08 10:19:28;;;;;;;15.43;9.20;;;;;;;5.82;100.00;99853.13;4936599;29;20047;-83
2023/01/08 10:21:56;;;;;;;12.50;9.33;;;;;;;5.83;100.00;99850.47;4942099;29;20067;-84
2023/01/08 10:24:38;;;;;;;12.83;9.23;;;;;;;5.94;100.00;99847.72;4961004;28;20039;-83
2023/01/08 10:27:26;;;;;;;12.43;8.70;;;;;;;5.92;100.00;99844.25;4925728;29;20044;-83
2023/01/08 10:30:04;;;;;;;12.50;9.00;;;;;;;5.88;100.00;99830.28;4957228;28;20038;-84
2023/01/08 10:32:33;;;;;;;13.43;9.07;;;;;;;5.88;100.00;99838.13;4933704;29;20130;-85
2023/01/08 10:35:05;;;;;;;12.17;8.37;;;;;;;5.93;100.00;99835.50;4926701;29;20039;-83
2023/01/08 10:37:38;;;;;;;13.27;8.13;;;;;;;5.91;100.00;99835.53;4947879;29;20054;-83
2023/01/08 10:40:26;;;;;;;16.10;10.17;;;;;;;5.92;100.00;99829.38;4926532;29;20138;-86
2023/01/08 10:42:54;;;;;;;14.07;10.13;;;;;;;5.91;100.00;99832.03;4938296;29;20044;-85
2023/01/08 10:45:22;;;;;;;14.13;9.70;;;;;;;5.93;100.00;99835.50;4930805;28;20036;-86
2023/01/08 10:47:56;;;;;;;14.83;10.07;;;;;;;5.99;100.00;99831.94;4948703;29;20043;-84
2023/01/08 10:50:29;;;;;;;12.73;8.87;;;;;;;6.05;100.00;99829.19;4916948;29;20047;-84
2023/01/08 10:53:00;;;;;;;12.07;8.67;;;;;;;6.06;100.00;99823.94;4940763;28;20055;-84
2023/01/08 10:55:34;;;;;;;12.53;8.53;;;;;;;6.07;100.00;99833.53;4945676;29;20046;-84
2023/01/08 10:58:12;;;;;;;;;;;;;;;6.15;100.00;99817.69;4945388;29;20115;-85
2023/01/08 11:00:53;;;;;;;13.00;8.40;;;;;;;6.19;100.00;99822.84;4946541;28;19930;-84
2023/01/08 11:03:28;;;;;;;17.20;10.67;;;;;;;6.21;100.00;99812.31;4939172;28;20070;-85
2023/01/08 11:05:54;;;;;;;16.90;12.43;;;;;;;6.16;100.00;99812.41;4922266;29;20050;-85
2023/01/08 11:08:22;;;;;;;12.20;8.97;;;;;;;6.11;100.00;99809.00;4938866;28;20047;-86
2023/01/08 11:10:59;;;;;;;13.77;10.07;;;;;;;6.19;100.00;99801.88;4942599;28;20510;-87
2023/01/08 11:13:27;;;;;;;12.63;9.07;;;;;;;6.26;100.00;99799.16;4936782;28;20052;-84
2023/01/08 11:16:04;;;;;;;15.57;9.30;;;;;;;6.30;100.00;99796.44;4924253;28;20035;-84
2023/01/08 11:18:41;;;;;;;15.10;9.87;;;;;;;6.31;100.00;99798.19;4923187;28;20059;-84
2023/01/08 11:21:09;;;;;;;14.63;9.47;;;;;;;6.26;100.00;99797.41;4935233;28;20422;-84
2023/01/08 11:23:36;;;;;;;14.23;9.53;;;;;;;6.27;100.00;99790.38;4943326;28;20051;-83
2023/01/08 11:26:07;;;;;;;16.20;9.57;;;;;;;6.33;100.00;99798.16;4958813;28;20070;-87
2023/01/08 11:29:11;;;;;;;12.93;8.70;;;;;;;6.33;100.00;99791.16;4951053;28;20051;-87
2023/01/08 11:32:13;;;;;;;14.37;8.77;;;;;;;6.34;100.00;99782.38;4936160;29;20468;-86
2023/01/08 11:34:52;;;;;;;14.40;9.17;;;;;;;6.49;100.00;99786.50;4902180;28;20044;-87
2023/01/08 11:37:23;;;;;;;13.57;8.90;;;;;;;6.44;100.00;99777.84;4935684;29;20519;-89
2023/01/08 11:39:54;;;;;;;15.17;9.47;;;;;;;6.52;100.00;99778.56;4951535;29;20047;-87